Airports

 

Airport Name Latest METAR Visual Conditions
Augusta Regional Airport (AGS) KAGS 152353Z 22006KT 10SM CLR 25/08 A3000 RMK AO2 SLP159 T02500083 10306 20250 53005 VFR
Hartsfield-Jackson Atlanta International Airport (ATL) KATL 152352Z 21007KT 10SM FEW200 BKN250 26/09 A3004 RMK AO2 SLP166 T02610094 10289 20261 53002 VFR
Asheville Regional Airport (AVL) KAVL 152354Z 22008KT 10SM SCT065 BKN090 22/13 A3005 RMK AO2 LTG DSNT SW RAE08 SLP154 P0000 60002 T02170128 10289 20211 53008 VFR
Birmingham-Shuttlesworth International Airport (BHM) KBHM 152353Z 20008KT 10SM FEW060 BKN250 26/12 A3004 RMK AO2 SLP165 T02610117 10283 20256 55000 VFR
Chattanooga Metropolitan Airport (CHA) KCHA 152353Z 22005KT 10SM FEW070 SCT200 BKN250 28/14 A3000 RMK AO2 SLP152 T02780144 10300 20278 53004 VFR
Charlotte Douglas International Airport (CLT) KCLT 152352Z 22008KT 10SM FEW080 FEW250 27/11 A2996 RMK AO2 SLP153 T02720106 10311 20272 53004 VFR
Greenville-Spartanburg International Airport (GSP) KGSP 152353Z 20011G17KT 10SM FEW100 26/11 A2998 RMK AO2 LTG DSNT W RAB29E40 SLP144 P0000 60000 T02610106 10300 20256 50003 VFR
Montgomery Regional Airport (MGM) KMGM 152353Z 15004KT 10SM CLR 24/13 A3003 RMK AO2 SLP166 T02390133 10289 20239 58002 $ VFR
DeKalb-Peachtree Airport (PDK) KPDK 152353Z 21006KT 10SM CLR 24/12 A3003 RMK AO2 SLP159 T02440117 10283 20239 53002 VFR
Tri-Cities Regional Airport (TRI) KTRI 152353Z 22006KT 10SM FEW055 FEW250 23/14 A2999 RMK AO2 SLP137 T02330139 10278 20233 53003 VFR
McGhee Tyson Airport (TYS) KTYS 152353Z 22009KT 10SM BKN250 25/15 A2998 RMK AO2 SLP144 T02500150 10289 20250 53001 VFR